sensor_id;sensor_type;location;lat;lon;timestamp;P1;durP1;ratioP1;P2;durP2;ratioP2
19219;SDS011;9744;49.364;7.484;2022-10-22T00:01:56;6.53;;;3.17;;
19219;SDS011;9744;49.364;7.484;2022-10-22T00:04:25;6.78;;;2.85;;
19219;SDS011;9744;49.364;7.484;2022-10-22T00:06:52;9.95;;;2.97;;
19219;SDS011;9744;49.364;7.484;2022-10-22T00:09:19;12.30;;;3.72;;
19219;SDS011;9744;49.364;7.484;2022-10-22T00:11:46;5.95;;;3.03;;
19219;SDS011;9744;49.364;7.484;2022-10-22T00:14:13;12.35;;;4.03;;
19219;SDS011;9744;49.364;7.484;2022-10-22T00:16:41;15.27;;;3.33;;
19219;SDS011;9744;49.364;7.484;2022-10-22T00:19:08;9.07;;;2.80;;
19219;SDS011;9744;49.364;7.484;2022-10-22T00:21:39;7.05;;;3.42;;
19219;SDS011;9744;49.364;7.484;2022-10-22T00:24:06;19.80;;;3.25;;
19219;SDS011;9744;49.364;7.484;2022-10-22T00:26:34;6.88;;;3.65;;
19219;SDS011;9744;49.364;7.484;2022-10-22T00:29:01;23.05;;;4.60;;
19219;SDS011;9744;49.364;7.484;2022-10-22T00:31:28;16.92;;;3.72;;
19219;SDS011;9744;49.364;7.484;2022-10-22T00:33:55;8.35;;;3.72;;
19219;SDS011;9744;49.364;7.484;2022-10-22T00:36:22;10.82;;;4.05;;
19219;SDS011;9744;49.364;7.484;2022-10-22T00:38:51;9.82;;;3.95;;
19219;SDS011;9744;49.364;7.484;2022-10-22T00:41:18;11.52;;;3.50;;
19219;SDS011;9744;49.364;7.484;2022-10-22T00:43:52;9.85;;;5.28;;
19219;SDS011;9744;49.364;7.484;2022-10-22T00:46:20;12.70;;;3.75;;
19219;SDS011;9744;49.364;7.484;2022-10-22T00:48:48;10.48;;;3.85;;
19219;SDS011;9744;49.364;7.484;2022-10-22T00:51:16;5.40;;;4.10;;
19219;SDS011;9744;49.364;7.484;2022-10-22T00:53:46;12.55;;;5.28;;
19219;SDS011;9744;49.364;7.484;2022-10-22T00:56:19;11.43;;;4.35;;
19219;SDS011;9744;49.364;7.484;2022-10-22T00:58:48;9.25;;;3.55;;
19219;SDS011;9744;49.364;7.484;2022-10-22T01:01:19;6.85;;;3.50;;
19219;SDS011;9744;49.364;7.484;2022-10-22T01:03:49;5.47;;;3.00;;
19219;SDS011;9744;49.364;7.484;2022-10-22T01:06:18;8.60;;;2.60;;
19219;SDS011;9744;49.364;7.484;2022-10-22T01:08:53;7.90;;;2.70;;
19219;SDS011;9744;49.364;7.484;2022-10-22T01:11:32;4.78;;;2.72;;
19219;SDS011;9744;49.364;7.484;2022-10-22T01:14:11;6.38;;;3.30;;
19219;SDS011;9744;49.364;7.484;2022-10-22T01:16:46;11.70;;;3.30;;
19219;SDS011;9744;49.364;7.484;2022-10-22T01:19:28;9.82;;;3.80;;
19219;SDS011;9744;49.364;7.484;2022-10-22T01:22:07;11.25;;;4.25;;
19219;SDS011;9744;49.364;7.484;2022-10-22T01:24:43;5.68;;;3.92;;
19219;SDS011;9744;49.364;7.484;2022-10-22T01:27:30;18.38;;;3.70;;
19219;SDS011;9744;49.364;7.484;2022-10-22T01:30:07;5.53;;;3.78;;
19219;SDS011;9744;49.364;7.484;2022-10-22T01:32:36;8.60;;;3.80;;
19219;SDS011;9744;49.364;7.484;2022-10-22T01:35:08;11.20;;;3.75;;
19219;SDS011;9744;49.364;7.484;2022-10-22T01:37:40;10.60;;;3.40;;
19219;SDS011;9744;49.364;7.484;2022-10-22T01:40:11;3.67;;;2.33;;
19219;SDS011;9744;49.364;7.484;2022-10-22T01:42:40;6.20;;;2.63;;
19219;SDS011;9744;49.364;7.484;2022-10-22T01:45:11;12.50;;;2.53;;
19219;SDS011;9744;49.364;7.484;2022-10-22T01:47:41;6.82;;;2.65;;
19219;SDS011;9744;49.364;7.484;2022-10-22T01:50:25;4.47;;;2.20;;
19219;SDS011;9744;49.364;7.484;2022-10-22T01:53:06;4.32;;;2.00;;
19219;SDS011;9744;49.364;7.484;2022-10-22T01:55:47;11.55;;;1.80;;
19219;SDS011;9744;49.364;7.484;2022-10-22T01:58:23;5.68;;;1.85;;
19219;SDS011;9744;49.364;7.484;2022-10-22T02:01:04;6.53;;;1.70;;
19219;SDS011;9744;49.364;7.484;2022-10-22T02:03:35;4.38;;;2.30;;
19219;SDS011;9744;49.364;7.484;2022-10-22T02:06:08;6.40;;;1.40;;
19219;SDS011;9744;49.364;7.484;2022-10-22T02:08:39;4.55;;;1.75;;
19219;SDS011;9744;49.364;7.484;2022-10-22T02:11:08;3.67;;;1.33;;
19219;SDS011;9744;49.364;7.484;2022-10-22T02:13:39;3.90;;;1.58;;
19219;SDS011;9744;49.364;7.484;2022-10-22T02:16:11;7.97;;;1.42;;
19219;SDS011;9744;49.364;7.484;2022-10-22T02:18:43;2.65;;;1.15;;
19219;SDS011;9744;49.364;7.484;2022-10-22T02:21:12;2.78;;;1.38;;
19219;SDS011;9744;49.364;7.484;2022-10-22T02:23:41;2.50;;;1.40;;
19219;SDS011;9744;49.364;7.484;2022-10-22T02:26:14;5.30;;;1.30;;
19219;SDS011;9744;49.364;7.484;2022-10-22T02:28:49;4.10;;;1.65;;
19219;SDS011;9744;49.364;7.484;2022-10-22T02:31:25;2.30;;;1.42;;
19219;SDS011;9744;49.364;7.484;2022-10-22T02:33:56;7.95;;;2.53;;
19219;SDS011;9744;49.364;7.484;2022-10-22T02:36:29;10.00;;;2.58;;
19219;SDS011;9744;49.364;7.484;2022-10-22T02:38:57;8.73;;;1.90;;
19219;SDS011;9744;49.364;7.484;2022-10-22T02:41:25;3.00;;;1.83;;
19219;SDS011;9744;49.364;7.484;2022-10-22T02:43:54;2.30;;;1.63;;
19219;SDS011;9744;49.364;7.484;2022-10-22T02:46:21;5.05;;;2.13;;
19219;SDS011;9744;49.364;7.484;2022-10-22T02:48:51;2.25;;;1.60;;
19219;SDS011;9744;49.364;7.484;2022-10-22T02:51:18;9.02;;;1.70;;
19219;SDS011;9744;49.364;7.484;2022-10-22T02:53:45;2.28;;;1.70;;
19219;SDS011;9744;49.364;7.484;2022-10-22T02:56:12;7.85;;;2.00;;
19219;SDS011;9744;49.364;7.484;2022-10-22T02:58:39;2.63;;;1.52;;
19219;SDS011;9744;49.364;7.484;2022-10-22T03:01:07;6.03;;;2.00;;
19219;SDS011;9744;49.364;7.484;2022-10-22T03:03:35;10.45;;;1.98;;
19219;SDS011;9744;49.364;7.484;2022-10-22T03:06:02;5.55;;;2.40;;
19219;SDS011;9744;49.364;7.484;2022-10-22T03:08:30;8.82;;;2.08;;
19219;SDS011;9744;49.364;7.484;2022-10-22T03:10:57;11.63;;;1.85;;
19219;SDS011;9744;49.364;7.484;2022-10-22T03:13:24;3.55;;;1.35;;
19219;SDS011;9744;49.364;7.484;2022-10-22T03:15:51;6.80;;;2.00;;
19219;SDS011;9744;49.364;7.484;2022-10-22T03:18:18;4.97;;;1.55;;
19219;SDS011;9744;49.364;7.484;2022-10-22T03:20:47;8.80;;;2.05;;
19219;SDS011;9744;49.364;7.484;2022-10-22T03:23:15;5.20;;;1.50;;
19219;SDS011;9744;49.364;7.484;2022-10-22T03:25:45;5.65;;;1.92;;
19219;SDS011;9744;49.364;7.484;2022-10-22T03:28:15;1.67;;;1.40;;
19219;SDS011;9744;49.364;7.484;2022-10-22T03:30:43;3.45;;;1.33;;
19219;SDS011;9744;49.364;7.484;2022-10-22T03:33:10;6.03;;;1.50;;
19219;SDS011;9744;49.364;7.484;2022-10-22T03:35:39;9.80;;;1.70;;
19219;SDS011;9744;49.364;7.484;2022-10-22T03:38:11;13.70;;;1.75;;
19219;SDS011;9744;49.364;7.484;2022-10-22T03:40:39;2.50;;;1.48;;
19219;SDS011;9744;49.364;7.484;2022-10-22T03:43:08;9.05;;;1.60;;
19219;SDS011;9744;49.364;7.484;2022-10-22T03:45:36;5.57;;;1.40;;
19219;SDS011;9744;49.364;7.484;2022-10-22T03:48:03;7.15;;;2.45;;
19219;SDS011;9744;49.364;7.484;2022-10-22T03:50:31;2.05;;;1.20;;
19219;SDS011;9744;49.364;7.484;2022-10-22T03:52:58;5.03;;;1.50;;
19219;SDS011;9744;49.364;7.484;2022-10-22T03:55:26;6.28;;;1.35;;
19219;SDS011;9744;49.364;7.484;2022-10-22T03:57:54;3.45;;;1.20;;
19219;SDS011;9744;49.364;7.484;2022-10-22T04:00:21;6.85;;;1.75;;
19219;SDS011;9744;49.364;7.484;2022-10-22T04:02:48;11.93;;;1.63;;
19219;SDS011;9744;49.364;7.484;2022-10-22T04:05:16;6.68;;;1.20;;
19219;SDS011;9744;49.364;7.484;2022-10-22T04:07:43;5.07;;;1.52;;
19219;SDS011;9744;49.364;7.484;2022-10-22T04:10:10;5.53;;;1.42;;
19219;SDS011;9744;49.364;7.484;2022-10-22T04:12:38;4.43;;;1.10;;
19219;SDS011;9744;49.364;7.484;2022-10-22T04:15:06;3.70;;;1.10;;
19219;SDS011;9744;49.364;7.484;2022-10-22T04:17:35;6.85;;;1.17;;
19219;SDS011;9744;49.364;7.484;2022-10-22T04:20:02;5.13;;;0.85;;
19219;SDS011;9744;49.364;7.484;2022-10-22T04:22:31;3.17;;;1.00;;
19219;SDS011;9744;49.364;7.484;2022-10-22T04:24:59;6.95;;;0.80;;
19219;SDS011;9744;49.364;7.484;2022-10-22T04:27:28;2.95;;;0.68;;
19219;SDS011;9744;49.364;7.484;2022-10-22T04:29:57;5.60;;;0.80;;
19219;SDS011;9744;49.364;7.484;2022-10-22T04:32:24;6.35;;;1.13;;
19219;SDS011;9744;49.364;7.484;2022-10-22T04:34:52;1.85;;;0.90;;
19219;SDS011;9744;49.364;7.484;2022-10-22T04:37:19;2.15;;;0.77;;
19219;SDS011;9744;49.364;7.484;2022-10-22T04:39:47;3.25;;;0.90;;
19219;SDS011;9744;49.364;7.484;2022-10-22T04:42:14;2.05;;;0.80;;
19219;SDS011;9744;49.364;7.484;2022-10-22T04:44:41;2.10;;;0.88;;
19219;SDS011;9744;49.364;7.484;2022-10-22T04:47:10;3.20;;;1.00;;
19219;SDS011;9744;49.364;7.484;2022-10-22T04:49:37;0.68;;;0.57;;
19219;SDS011;9744;49.364;7.484;2022-10-22T04:52:04;5.22;;;0.90;;
19219;SDS011;9744;49.364;7.484;2022-10-22T04:54:31;1.42;;;0.80;;
19219;SDS011;9744;49.364;7.484;2022-10-22T04:56:58;1.83;;;0.75;;
19219;SDS011;9744;49.364;7.484;2022-10-22T04:59:26;4.60;;;1.10;;
19219;SDS011;9744;49.364;7.484;2022-10-22T05:01:53;5.53;;;0.80;;
19219;SDS011;9744;49.364;7.484;2022-10-22T05:04:22;4.45;;;0.70;;
19219;SDS011;9744;49.364;7.484;2022-10-22T05:06:49;2.83;;;1.00;;
19219;SDS011;9744;49.364;7.484;2022-10-22T05:09:18;4.60;;;1.08;;
19219;SDS011;9744;49.364;7.484;2022-10-22T05:11:46;4.22;;;1.10;;
19219;SDS011;9744;49.364;7.484;2022-10-22T05:14:15;5.95;;;0.90;;
19219;SDS011;9744;49.364;7.484;2022-10-22T05:16:43;4.38;;;0.90;;
19219;SDS011;9744;49.364;7.484;2022-10-22T05:19:13;5.28;;;0.98;;
19219;SDS011;9744;49.364;7.484;2022-10-22T05:21:44;4.72;;;0.77;;
19219;SDS011;9744;49.364;7.484;2022-10-22T05:24:11;3.92;;;0.95;;
19219;SDS011;9744;49.364;7.484;2022-10-22T05:26:38;3.33;;;1.10;;
19219;SDS011;9744;49.364;7.484;2022-10-22T05:29:06;4.57;;;1.10;;
19219;SDS011;9744;49.364;7.484;2022-10-22T05:31:33;1.92;;;0.93;;
19219;SDS011;9744;49.364;7.484;2022-10-22T05:34:00;2.05;;;1.33;;
19219;SDS011;9744;49.364;7.484;2022-10-22T05:36:27;2.42;;;0.90;;
19219;SDS011;9744;49.364;7.484;2022-10-22T05:38:56;0.95;;;0.85;;
19219;SDS011;9744;49.364;7.484;2022-10-22T05:41:24;4.95;;;0.98;;
19219;SDS011;9744;49.364;7.484;2022-10-22T05:43:53;1.63;;;1.05;;
19219;SDS011;9744;49.364;7.484;2022-10-22T05:46:21;0.70;;;0.70;;
19219;SDS011;9744;49.364;7.484;2022-10-22T05:48:50;5.90;;;0.98;;
19219;SDS011;9744;49.364;7.484;2022-10-22T05:51:17;5.10;;;0.80;;
19219;SDS011;9744;49.364;7.484;2022-10-22T05:53:49;5.65;;;0.80;;
19219;SDS011;9744;49.364;7.484;2022-10-22T05:56:19;4.50;;;0.80;;
19219;SDS011;9744;49.364;7.484;2022-10-22T05:58:47;2.45;;;0.60;;
19219;SDS011;9744;49.364;7.484;2022-10-22T06:01:16;5.45;;;0.85;;
19219;SDS011;9744;49.364;7.484;2022-10-22T06:03:45;4.00;;;0.75;;
19219;SDS011;9744;49.364;7.484;2022-10-22T06:06:17;3.35;;;0.70;;
19219;SDS011;9744;49.364;7.484;2022-10-22T06:08:47;5.50;;;0.85;;
19219;SDS011;9744;49.364;7.484;2022-10-22T06:11:16;6.10;;;0.70;;
19219;SDS011;9744;49.364;7.484;2022-10-22T06:13:46;3.70;;;0.90;;
19219;SDS011;9744;49.364;7.484;2022-10-22T06:16:14;7.57;;;1.00;;
19219;SDS011;9744;49.364;7.484;2022-10-22T06:18:41;7.03;;;0.70;;
19219;SDS011;9744;49.364;7.484;2022-10-22T06:21:09;3.38;;;0.65;;
19219;SDS011;9744;49.364;7.484;2022-10-22T06:23:38;2.55;;;0.80;;
19219;SDS011;9744;49.364;7.484;2022-10-22T06:26:06;4.00;;;0.55;;
19219;SDS011;9744;49.364;7.484;2022-10-22T06:28:34;1.88;;;0.63;;
19219;SDS011;9744;49.364;7.484;2022-10-22T06:31:03;6.65;;;0.95;;
19219;SDS011;9744;49.364;7.484;2022-10-22T06:33:30;6.82;;;0.73;;
19219;SDS011;9744;49.364;7.484;2022-10-22T06:36:03;3.80;;;0.60;;
19219;SDS011;9744;49.364;7.484;2022-10-22T06:38:31;1.52;;;0.70;;
19219;SDS011;9744;49.364;7.484;2022-10-22T06:41:00;3.20;;;0.60;;
19219;SDS011;9744;49.364;7.484;2022-10-22T06:43:29;3.78;;;0.68;;
19219;SDS011;9744;49.364;7.484;2022-10-22T06:45:57;5.22;;;0.90;;
19219;SDS011;9744;49.364;7.484;2022-10-22T06:48:27;1.85;;;0.80;;
19219;SDS011;9744;49.364;7.484;2022-10-22T06:50:55;9.70;;;3.58;;
19219;SDS011;9744;49.364;7.484;2022-10-22T06:53:26;9.63;;;2.78;;
19219;SDS011;9744;49.364;7.484;2022-10-22T06:55:53;6.93;;;1.73;;
19219;SDS011;9744;49.364;7.484;2022-10-22T06:58:20;3.85;;;1.52;;
19219;SDS011;9744;49.364;7.484;2022-10-22T07:00:47;3.10;;;2.30;;
19219;SDS011;9744;49.364;7.484;2022-10-22T07:03:15;4.25;;;1.20;;
19219;SDS011;9744;49.364;7.484;2022-10-22T07:05:43;2.53;;;1.50;;
19219;SDS011;9744;49.364;7.484;2022-10-22T07:08:10;4.13;;;1.30;;
19219;SDS011;9744;49.364;7.484;2022-10-22T07:10:37;1.65;;;1.30;;
19219;SDS011;9744;49.364;7.484;2022-10-22T07:13:04;3.65;;;1.50;;
19219;SDS011;9744;49.364;7.484;2022-10-22T07:15:31;4.78;;;2.00;;
19219;SDS011;9744;49.364;7.484;2022-10-22T07:17:59;5.05;;;1.40;;
19219;SDS011;9744;49.364;7.484;2022-10-22T07:20:29;6.82;;;1.60;;
19219;SDS011;9744;49.364;7.484;2022-10-22T07:22:57;8.23;;;1.90;;
19219;SDS011;9744;49.364;7.484;2022-10-22T07:25:24;7.60;;;1.30;;
19219;SDS011;9744;49.364;7.484;2022-10-22T07:27:51;3.92;;;1.23;;
19219;SDS011;9744;49.364;7.484;2022-10-22T07:30:19;3.45;;;1.50;;
19219;SDS011;9744;49.364;7.484;2022-10-22T07:32:46;3.47;;;1.60;;
19219;SDS011;9744;49.364;7.484;2022-10-22T07:35:13;2.50;;;1.58;;
19219;SDS011;9744;49.364;7.484;2022-10-22T07:37:40;4.85;;;1.70;;
19219;SDS011;9744;49.364;7.484;2022-10-22T07:40:10;2.72;;;1.50;;
19219;SDS011;9744;49.364;7.484;2022-10-22T07:42:37;2.38;;;1.40;;
19219;SDS011;9744;49.364;7.484;2022-10-22T07:45:05;10.75;;;1.30;;
19219;SDS011;9744;49.364;7.484;2022-10-22T07:47:34;4.90;;;2.72;;
19219;SDS011;9744;49.364;7.484;2022-10-22T07:50:02;2.70;;;1.80;;
19219;SDS011;9744;49.364;7.484;2022-10-22T07:52:29;4.95;;;1.80;;
19219;SDS011;9744;49.364;7.484;2022-10-22T07:54:57;7.25;;;1.90;;
19219;SDS011;9744;49.364;7.484;2022-10-22T07:57:25;12.45;;;1.98;;
19219;SDS011;9744;49.364;7.484;2022-10-22T07:59:52;3.35;;;2.40;;
19219;SDS011;9744;49.364;7.484;2022-10-22T08:02:20;4.47;;;2.50;;
19219;SDS011;9744;49.364;7.484;2022-10-22T08:04:47;6.78;;;2.53;;
19219;SDS011;9744;49.364;7.484;2022-10-22T08:07:15;4.82;;;2.08;;
19219;SDS011;9744;49.364;7.484;2022-10-22T08:09:42;5.18;;;2.15;;
19219;SDS011;9744;49.364;7.484;2022-10-22T08:12:09;10.60;;;2.88;;
19219;SDS011;9744;49.364;7.484;2022-10-22T08:14:37;5.25;;;2.60;;
19219;SDS011;9744;49.364;7.484;2022-10-22T08:17:05;6.70;;;2.13;;
19219;SDS011;9744;49.364;7.484;2022-10-22T08:19:32;6.13;;;3.22;;
19219;SDS011;9744;49.364;7.484;2022-10-22T08:21:59;6.22;;;2.67;;
19219;SDS011;9744;49.364;7.484;2022-10-22T08:24:27;4.82;;;2.28;;
19219;SDS011;9744;49.364;7.484;2022-10-22T08:26:54;5.57;;;2.05;;
19219;SDS011;9744;49.364;7.484;2022-10-22T08:29:21;5.18;;;2.45;;
19219;SDS011;9744;49.364;7.484;2022-10-22T08:31:51;8.25;;;2.00;;
19219;SDS011;9744;49.364;7.484;2022-10-22T08:34:19;9.55;;;1.95;;
19219;SDS011;9744;49.364;7.484;2022-10-22T08:36:46;9.65;;;2.30;;
19219;SDS011;9744;49.364;7.484;2022-10-22T08:39:13;10.98;;;2.30;;
19219;SDS011;9744;49.364;7.484;2022-10-22T08:41:42;2.75;;;1.70;;
19219;SDS011;9744;49.364;7.484;2022-10-22T08:44:23;5.20;;;2.10;;
19219;SDS011;9744;49.364;7.484;2022-10-22T08:47:13;6.15;;;1.83;;
19219;SDS011;9744;49.364;7.484;2022-10-22T08:49:51;3.45;;;1.35;;
19219;SDS011;9744;49.364;7.484;2022-10-22T08:52:21;5.47;;;1.80;;
19219;SDS011;9744;49.364;7.484;2022-10-22T08:54:50;1.48;;;1.27;;
19219;SDS011;9744;49.364;7.484;2022-10-22T08:57:22;3.30;;;1.40;;
19219;SDS011;9744;49.364;7.484;2022-10-22T09:00:08;4.13;;;1.20;;
19219;SDS011;9744;49.364;7.484;2022-10-22T09:02:48;3.05;;;1.25;;
19219;SDS011;9744;49.364;7.484;2022-10-22T09:05:31;3.03;;;1.20;;
19219;SDS011;9744;49.364;7.484;2022-10-22T09:08:06;3.47;;;1.63;;
19219;SDS011;9744;49.364;7.484;2022-10-22T09:10:36;4.88;;;1.30;;
19219;SDS011;9744;49.364;7.484;2022-10-22T09:13:07;6.70;;;1.60;;
19219;SDS011;9744;49.364;7.484;2022-10-22T09:15:36;2.42;;;1.38;;
19219;SDS011;9744;49.364;7.484;2022-10-22T09:18:12;9.85;;;1.40;;
19219;SDS011;9744;49.364;7.484;2022-10-22T09:20:51;5.30;;;1.60;;
19219;SDS011;9744;49.364;7.484;2022-10-22T09:23:23;5.43;;;1.40;;
19219;SDS011;9744;49.364;7.484;2022-10-22T09:25:58;8.15;;;2.28;;
19219;SDS011;9744;49.364;7.484;2022-10-22T09:28:26;6.90;;;1.50;;
19219;SDS011;9744;49.364;7.484;2022-10-22T09:30:53;7.90;;;1.30;;
19219;SDS011;9744;49.364;7.484;2022-10-22T09:33:23;2.88;;;1.17;;
19219;SDS011;9744;49.364;7.484;2022-10-22T09:35:52;9.93;;;3.55;;
19219;SDS011;9744;49.364;7.484;2022-10-22T09:38:24;5.65;;;1.25;;
19219;SDS011;9744;49.364;7.484;2022-10-22T09:40:53;6.07;;;1.50;;
19219;SDS011;9744;49.364;7.484;2022-10-22T09:43:21;5.72;;;1.60;;
19219;SDS011;9744;49.364;7.484;2022-10-22T09:45:54;5.53;;;1.30;;
19219;SDS011;9744;49.364;7.484;2022-10-22T09:48:27;5.78;;;1.70;;
19219;SDS011;9744;49.364;7.484;2022-10-22T09:50:58;4.03;;;1.00;;
19219;SDS011;9744;49.364;7.484;2022-10-22T09:53:30;4.63;;;1.33;;
19219;SDS011;9744;49.364;7.484;2022-10-22T09:56:05;7.03;;;1.10;;
19219;SDS011;9744;49.364;7.484;2022-10-22T09:58:40;10.00;;;1.00;;
19219;SDS011;9744;49.364;7.484;2022-10-22T10:01:14;6.75;;;1.10;;
19219;SDS011;9744;49.364;7.484;2022-10-22T10:03:44;5.30;;;0.98;;
19219;SDS011;9744;49.364;7.484;2022-10-22T10:06:16;2.35;;;0.90;;
19219;SDS011;9744;49.364;7.484;2022-10-22T10:08:45;4.53;;;1.63;;
19219;SDS011;9744;49.364;7.484;2022-10-22T10:11:14;4.63;;;1.00;;
19219;SDS011;9744;49.364;7.484;2022-10-22T10:13:48;6.00;;;0.90;;
19219;SDS011;9744;49.364;7.484;2022-10-22T10:16:27;5.63;;;1.33;;
19219;SDS011;9744;49.364;7.484;2022-10-22T10:19:12;3.92;;;1.27;;
19219;SDS011;9744;49.364;7.484;2022-10-22T10:21:53;5.50;;;0.90;;
19219;SDS011;9744;49.364;7.484;2022-10-22T10:24:29;4.15;;;1.27;;
19219;SDS011;9744;49.364;7.484;2022-10-22T10:27:07;5.15;;;0.90;;
19219;SDS011;9744;49.364;7.484;2022-10-22T10:29:40;6.30;;;1.27;;
19219;SDS011;9744;49.364;7.484;2022-10-22T10:32:20;3.45;;;1.10;;
19219;SDS011;9744;49.364;7.484;2022-10-22T10:35:00;3.42;;;0.75;;
19219;SDS011;9744;49.364;7.484;2022-10-22T10:37:35;5.38;;;1.05;;
19219;SDS011;9744;49.364;7.484;2022-10-22T10:40:11;2.88;;;0.80;;
19219;SDS011;9744;49.364;7.484;2022-10-22T10:42:54;5.95;;;0.98;;
19219;SDS011;9744;49.364;7.484;2022-10-22T10:45:26;10.73;;;1.38;;
19219;SDS011;9744;49.364;7.484;2022-10-22T10:48:09;8.82;;;1.05;;
19219;SDS011;9744;49.364;7.484;2022-10-22T10:50:51;7.45;;;1.60;;
19219;SDS011;9744;49.364;7.484;2022-10-22T10:53:28;6.75;;;0.80;;
19219;SDS011;9744;49.364;7.484;2022-10-22T10:56:09;6.30;;;1.05;;
19219;SDS011;9744;49.364;7.484;2022-10-22T10:58:46;2.55;;;0.93;;
19219;SDS011;9744;49.364;7.484;2022-10-22T11:01:22;3.33;;;0.75;;
19219;SDS011;9744;49.364;7.484;2022-10-22T11:07:03;8.10;;;1.20;;
19219;SDS011;9744;49.364;7.484;2022-10-22T11:09:36;6.50;;;1.00;;
19219;SDS011;9744;49.364;7.484;2022-10-22T11:12:09;8.32;;;1.33;;
19219;SDS011;9744;49.364;7.484;2022-10-22T11:14:43;12.73;;;1.17;;
19219;SDS011;9744;49.364;7.484;2022-10-22T11:17:21;9.88;;;1.50;;
19219;SDS011;9744;49.364;7.484;2022-10-22T11:19:51;15.27;;;1.10;;
19219;SDS011;9744;49.364;7.484;2022-10-22T11:22:29;7.45;;;1.15;;
19219;SDS011;9744;49.364;7.484;2022-10-22T11:25:02;3.42;;;0.85;;
19219;SDS011;9744;49.364;7.484;2022-10-22T11:27:39;5.43;;;1.10;;
19219;SDS011;9744;49.364;7.484;2022-10-22T11:30:13;6.78;;;1.70;;
19219;SDS011;9744;49.364;7.484;2022-10-22T11:32:42;7.25;;;0.85;;
19219;SDS011;9744;49.364;7.484;2022-10-22T11:35:13;13.30;;;1.10;;
19219;SDS011;9744;49.364;7.484;2022-10-22T11:37:43;3.15;;;0.85;;
19219;SDS011;9744;49.364;7.484;2022-10-22T11:40:13;3.35;;;0.95;;
19219;SDS011;9744;49.364;7.484;2022-10-22T11:42:45;6.53;;;2.22;;
19219;SDS011;9744;49.364;7.484;2022-10-22T11:45:26;8.77;;;1.83;;
19219;SDS011;9744;49.364;7.484;2022-10-22T11:47:57;9.35;;;1.85;;
19219;SDS011;9744;49.364;7.484;2022-10-22T11:50:26;5.63;;;1.40;;
19219;SDS011;9744;49.364;7.484;2022-10-22T11:53:16;6.82;;;1.33;;
19219;SDS011;9744;49.364;7.484;2022-10-22T11:55:45;3.30;;;1.40;;
19219;SDS011;9744;49.364;7.484;2022-10-22T12:04:16;6.63;;;1.00;;
19219;SDS011;9744;49.364;7.484;2022-10-22T12:06:56;3.00;;;0.77;;
19219;SDS011;9744;49.364;7.484;2022-10-22T12:09:26;7.47;;;1.58;;
19219;SDS011;9744;49.364;7.484;2022-10-22T12:12:11;12.25;;;1.58;;
19219;SDS011;9744;49.364;7.484;2022-10-22T12:14:50;6.65;;;1.40;;
19219;SDS011;9744;49.364;7.484;2022-10-22T12:17:19;5.80;;;0.98;;
19219;SDS011;9744;49.364;7.484;2022-10-22T12:19:48;8.32;;;1.38;;
19219;SDS011;9744;49.364;7.484;2022-10-22T12:22:21;8.77;;;1.90;;
19219;SDS011;9744;49.364;7.484;2022-10-22T12:24:53;7.13;;;2.85;;
19219;SDS011;9744;49.364;7.484;2022-10-22T12:27:23;9.63;;;1.77;;
19219;SDS011;9744;49.364;7.484;2022-10-22T12:29:53;7.53;;;2.22;;
19219;SDS011;9744;49.364;7.484;2022-10-22T12:32:21;10.32;;;3.00;;
19219;SDS011;9744;49.364;7.484;2022-10-22T12:34:50;7.70;;;2.50;;
19219;SDS011;9744;49.364;7.484;2022-10-22T12:37:18;6.68;;;2.13;;
19219;SDS011;9744;49.364;7.484;2022-10-22T12:39:46;9.20;;;2.03;;
19219;SDS011;9744;49.364;7.484;2022-10-22T12:42:15;9.30;;;1.58;;
19219;SDS011;9744;49.364;7.484;2022-10-22T12:44:43;11.25;;;1.20;;
19219;SDS011;9744;49.364;7.484;2022-10-22T12:47:12;7.38;;;0.90;;
19219;SDS011;9744;49.364;7.484;2022-10-22T12:49:44;9.30;;;1.02;;
19219;SDS011;9744;49.364;7.484;2022-10-22T12:52:15;8.15;;;1.10;;
19219;SDS011;9744;49.364;7.484;2022-10-22T12:54:44;7.90;;;1.00;;
19219;SDS011;9744;49.364;7.484;2022-10-22T12:57:15;8.52;;;1.30;;
19219;SDS011;9744;49.364;7.484;2022-10-22T12:59:45;6.47;;;1.10;;
19219;SDS011;9744;49.364;7.484;2022-10-22T13:02:15;5.70;;;1.05;;
19219;SDS011;9744;49.364;7.484;2022-10-22T13:05:03;7.47;;;1.92;;
19219;SDS011;9744;49.364;7.484;2022-10-22T13:07:45;6.43;;;1.05;;
19219;SDS011;9744;49.364;7.484;2022-10-22T13:10:17;5.30;;;0.75;;
19219;SDS011;9744;49.364;7.484;2022-10-22T13:12:53;5.22;;;1.00;;
19219;SDS011;9744;49.364;7.484;2022-10-22T13:15:31;3.85;;;0.98;;
19219;SDS011;9744;49.364;7.484;2022-10-22T13:18:01;8.15;;;2.28;;
19219;SDS011;9744;49.364;7.484;2022-10-22T13:20:30;8.77;;;1.17;;
19219;SDS011;9744;49.364;7.484;2022-10-22T13:23:02;4.10;;;0.60;;
19219;SDS011;9744;49.364;7.484;2022-10-22T13:25:31;7.65;;;0.98;;
19219;SDS011;9744;49.364;7.484;2022-10-22T13:28:02;9.63;;;0.80;;
19219;SDS011;9744;49.364;7.484;2022-10-22T13:30:50;2.75;;;0.85;;
19219;SDS011;9744;49.364;7.484;2022-10-22T13:33:20;6.30;;;2.03;;
19219;SDS011;9744;49.364;7.484;2022-10-22T13:35:51;8.35;;;1.10;;
19219;SDS011;9744;49.364;7.484;2022-10-22T13:38:20;6.10;;;0.88;;
19219;SDS011;9744;49.364;7.484;2022-10-22T13:40:49;7.18;;;1.20;;
19219;SDS011;9744;49.364;7.484;2022-10-22T13:43:18;7.82;;;2.08;;
19219;SDS011;9744;49.364;7.484;2022-10-22T13:45:46;1.92;;;0.90;;
19219;SDS011;9744;49.364;7.484;2022-10-22T13:48:16;7.93;;;1.02;;
19219;SDS011;9744;49.364;7.484;2022-10-22T13:50:46;4.82;;;1.80;;
19219;SDS011;9744;49.364;7.484;2022-10-22T13:53:15;7.20;;;1.60;;
19219;SDS011;9744;49.364;7.484;2022-10-22T13:55:44;6.32;;;1.90;;
19219;SDS011;9744;49.364;7.484;2022-10-22T13:58:14;9.90;;;1.67;;
19219;SDS011;9744;49.364;7.484;2022-10-22T14:00:44;3.42;;;1.02;;
19219;SDS011;9744;49.364;7.484;2022-10-22T14:03:14;5.93;;;1.05;;
19219;SDS011;9744;49.364;7.484;2022-10-22T14:05:44;5.63;;;0.82;;
19219;SDS011;9744;49.364;7.484;2022-10-22T14:08:14;5.78;;;0.95;;
19219;SDS011;9744;49.364;7.484;2022-10-22T14:10:44;5.97;;;0.80;;
19219;SDS011;9744;49.364;7.484;2022-10-22T14:13:12;2.88;;;0.60;;
19219;SDS011;9744;49.364;7.484;2022-10-22T14:15:41;7.72;;;0.85;;
19219;SDS011;9744;49.364;7.484;2022-10-22T14:18:11;2.17;;;0.75;;
19219;SDS011;9744;49.364;7.484;2022-10-22T14:20:48;4.45;;;0.80;;
19219;SDS011;9744;49.364;7.484;2022-10-22T14:23:18;5.70;;;1.33;;
19219;SDS011;9744;49.364;7.484;2022-10-22T14:25:47;5.57;;;1.52;;
19219;SDS011;9744;49.364;7.484;2022-10-22T14:28:16;3.70;;;0.80;;
19219;SDS011;9744;49.364;7.484;2022-10-22T14:30:43;8.02;;;0.90;;
19219;SDS011;9744;49.364;7.484;2022-10-22T14:33:13;4.20;;;1.27;;
19219;SDS011;9744;49.364;7.484;2022-10-22T14:35:42;6.95;;;1.33;;
19219;SDS011;9744;49.364;7.484;2022-10-22T14:38:10;5.53;;;1.33;;
19219;SDS011;9744;49.364;7.484;2022-10-22T14:40:37;8.35;;;1.08;;
19219;SDS011;9744;49.364;7.484;2022-10-22T14:43:08;7.13;;;1.00;;
19219;SDS011;9744;49.364;7.484;2022-10-22T14:45:36;7.03;;;1.67;;
19219;SDS011;9744;49.364;7.484;2022-10-22T14:48:03;9.23;;;1.50;;
19219;SDS011;9744;49.364;7.484;2022-10-22T14:50:33;3.97;;;1.42;;
19219;SDS011;9744;49.364;7.484;2022-10-22T14:53:01;3.33;;;0.82;;
19219;SDS011;9744;49.364;7.484;2022-10-22T14:55:28;6.88;;;1.27;;
19219;SDS011;9744;49.364;7.484;2022-10-22T14:57:55;6.30;;;1.73;;
19219;SDS011;9744;49.364;7.484;2022-10-22T15:00:23;13.40;;;2.50;;
19219;SDS011;9744;49.364;7.484;2022-10-22T15:02:50;9.10;;;2.20;;
19219;SDS011;9744;49.364;7.484;2022-10-22T15:05:20;7.45;;;1.27;;
19219;SDS011;9744;49.364;7.484;2022-10-22T15:07:49;10.43;;;1.95;;
19219;SDS011;9744;49.364;7.484;2022-10-22T15:10:16;9.90;;;1.08;;
19219;SDS011;9744;49.364;7.484;2022-10-22T15:12:43;6.28;;;1.10;;
19219;SDS011;9744;49.364;7.484;2022-10-22T15:15:10;6.53;;;1.88;;
19219;SDS011;9744;49.364;7.484;2022-10-22T15:17:38;5.22;;;0.80;;
19219;SDS011;9744;49.364;7.484;2022-10-22T15:20:05;15.98;;;1.88;;
19219;SDS011;9744;49.364;7.484;2022-10-22T15:22:33;10.35;;;1.40;;
19219;SDS011;9744;49.364;7.484;2022-10-22T15:25:02;10.60;;;4.88;;
19219;SDS011;9744;49.364;7.484;2022-10-22T15:27:30;6.70;;;2.03;;
19219;SDS011;9744;49.364;7.484;2022-10-22T15:29:58;20.33;;;2.78;;